Time;durP1;ratioP1;P1;durP2;ratioP2;P2;SDS_P1;SDS_P2;PMS_P1;PMS_P2;Temp;Humidity;BMP_temperature;BMP_pressure;BME280_temperature;BME280_humidity;BME280_pressure;Samples;Min_cycle;Max_cycle;Signal;HPM_P1;HPM_P2
2022/04/26 03:36:14;;;;;;;161.13;49.97;;;;;;;6.67;100.00;99007.41;4989882;28;20054;-53
2022/04/26 03:38:43;;;;;;;151.52;48.92;;;;;;;6.73;100.00;99011.00;4978202;28;20023;-53
2022/04/26 03:41:09;;;;;;;159.20;47.92;;;;;;;6.77;100.00;99016.72;5000545;28;20087;-53
2022/04/26 03:43:34;;;;;;;156.52;48.20;;;;;;;6.82;100.00;99014.19;4987462;28;20513;-51
2022/04/26 03:45:59;;;;;;;166.30;48.78;;;;;;;6.85;100.00;99008.41;4995757;28;20038;-52
2022/04/26 03:48:25;;;;;;;158.85;49.15;;;;;;;6.89;100.00;99017.59;4995613;28;20057;-51
2022/04/26 03:50:50;;;;;;;168.63;49.42;;;;;;;6.96;100.00;99023.63;4985061;28;20392;-51
2022/04/26 03:53:16;;;;;;;165.23;48.42;;;;;;;6.89;100.00;99015.75;4989897;28;20097;-50
2022/04/26 03:55:41;;;;;;;171.23;47.47;;;;;;;6.98;100.00;99024.22;4994522;28;20046;-49
2022/04/26 03:58:07;;;;;;;174.48;48.22;;;;;;;6.85;100.00;99024.41;4990179;28;20092;-52
2022/04/26 04:00:32;;;;;;;166.90;47.45;;;;;;;6.83;100.00;99023.81;4988530;28;20164;-53
2022/04/26 04:02:58;;;;;;;176.15;47.17;;;;;;;6.90;100.00;99022.69;4990172;28;20460;-51
2022/04/26 04:05:23;;;;;;;163.18;47.63;;;;;;;6.87;100.00;99028.47;4993682;28;20046;-50
2022/04/26 04:07:48;;;;;;;172.50;48.30;;;;;;;6.90;100.00;99027.22;4995313;28;20035;-52
2022/04/26 04:10:14;;;;;;;172.48;48.42;;;;;;;6.84;100.00;99022.75;5003389;28;20041;-53
2022/04/26 04:12:39;;;;;;;175.98;46.13;;;;;;;6.86;100.00;99032.19;4997948;28;20064;-52
2022/04/26 04:15:05;;;;;;;167.73;47.55;;;;;;;6.88;100.00;99037.28;4995814;28;20507;-53
2022/04/26 04:17:31;;;;;;;172.05;47.45;;;;;;;6.90;100.00;99032.53;4992930;28;20032;-51
2022/04/26 04:19:56;;;;;;;174.05;45.85;;;;;;;6.80;100.00;99032.25;4996690;28;20023;-52
2022/04/26 04:22:22;;;;;;;181.85;49.95;;;;;;;6.72;100.00;99033.38;4995443;28;20037;-52
2022/04/26 04:24:47;;;;;;;197.05;50.60;;;;;;;6.81;100.00;99033.88;4999097;28;20033;-53
2022/04/26 04:27:13;;;;;;;181.32;50.20;;;;;;;6.83;100.00;99037.13;4987390;28;20115;-51
2022/04/26 04:29:38;;;;;;;203.30;50.42;;;;;;;6.82;100.00;99036.31;4973559;28;20026;-55
2022/04/26 04:32:04;;;;;;;185.05;51.00;;;;;;;6.82;100.00;99041.66;4993459;28;20046;-55
2022/04/26 04:34:29;;;;;;;199.10;50.75;;;;;;;6.76;100.00;99039.06;4994079;28;20041;-51
2022/04/26 04:36:54;;;;;;;187.23;48.67;;;;;;;6.88;100.00;99043.41;4989816;28;20092;-51
2022/04/26 04:39:20;;;;;;;200.50;52.85;;;;;;;6.79;100.00;99046.59;5002018;28;20443;-52
2022/04/26 04:41:46;;;;;;;194.00;50.13;;;;;;;6.79;100.00;99046.59;4988929;28;20552;-50
2022/04/26 04:44:12;;;;;;;199.07;51.03;;;;;;;6.79;100.00;99051.91;4992929;28;20495;-51
2022/04/26 04:46:37;;;;;;;184.63;50.45;;;;;;;6.76;100.00;99052.38;4992508;28;20054;-52
2022/04/26 04:49:03;;;;;;;186.38;48.65;;;;;;;6.76;100.00;99063.81;4994699;28;20037;-51
2022/04/26 04:51:28;;;;;;;177.27;48.58;;;;;;;6.84;100.00;99058.22;4994576;28;20524;-52
2022/04/26 04:53:54;;;;;;;186.73;51.08;;;;;;;6.86;100.00;99065.97;4990826;28;20068;-54
2022/04/26 04:56:19;;;;;;;187.02;51.38;;;;;;;6.81;100.00;99065.84;4993704;28;20045;-54
2022/04/26 04:58:45;;;;;;;180.07;47.53;;;;;;;7.00;100.00;99070.13;4991126;28;20503;-53
2022/04/26 05:01:10;;;;;;;178.38;48.90;;;;;;;6.97;100.00;99075.09;4990682;28;20053;-53
2022/04/26 05:03:36;;;;;;;179.55;50.25;;;;;;;6.91;100.00;99074.97;4992662;28;20073;-52
2022/04/26 05:06:01;;;;;;;181.40;52.13;;;;;;;6.90;100.00;99083.16;4987179;28;20053;-51
2022/04/26 05:08:26;;;;;;;153.13;45.15;;;;;;;6.89;100.00;99078.88;4988454;28;20385;-53
2022/04/26 05:10:52;;;;;;;163.20;46.47;;;;;;;6.87;100.00;99080.94;4996514;28;20068;-54
2022/04/26 05:13:17;;;;;;;162.35;46.38;;;;;;;6.93;100.00;99080.03;4994862;28;20030;-50
2022/04/26 05:15:44;;;;;;;171.20;47.35;;;;;;;6.93;100.00;99089.91;4998305;28;20127;-52
2022/04/26 05:18:11;;;;;;;162.55;48.28;;;;;;;7.06;100.00;99093.25;4993815;28;20060;-52
2022/04/26 05:20:38;;;;;;;164.15;49.05;;;;;;;6.96;100.00;99090.25;4990893;28;20042;-51
2022/04/26 05:25:47;;;;;;;142.80;41.70;;;;;;;6.95;100.00;99088.63;4993015;28;20072;-51
2022/04/26 05:28:12;;;;;;;152.60;44.13;;;;;;;6.93;100.00;99092.56;4991742;28;20353;-51
2022/04/26 05:30:38;;;;;;;148.45;42.08;;;;;;;7.13;100.00;99096.63;4993543;28;20045;-53
2022/04/26 05:33:03;;;;;;;144.55;40.90;;;;;;;7.29;100.00;99094.41;4994766;28;20033;-52
2022/04/26 05:35:29;;;;;;;146.93;41.47;;;;;;;7.29;100.00;99099.75;4988076;28;20563;-51
2022/04/26 05:37:54;;;;;;;138.82;42.78;;;;;;;7.15;100.00;99108.94;4988680;28;20041;-54
2022/04/26 05:40:20;;;;;;;135.75;41.65;;;;;;;7.08;100.00;99099.13;4984422;28;20080;-55
2022/04/26 05:42:45;;;;;;;129.00;40.85;;;;;;;7.06;100.00;99101.25;4985586;28;20289;-50
2022/04/26 05:45:11;;;;;;;124.55;39.33;;;;;;;7.06;100.00;99101.25;4989924;28;20041;-50
2022/04/26 05:47:43;;;;;;;131.60;39.40;;;;;;;6.99;100.00;99111.16;4986061;28;20342;-54
2022/04/26 05:50:09;;;;;;;132.50;39.42;;;;;;;7.07;100.00;99107.38;4990095;28;20173;-51
2022/04/26 05:52:35;;;;;;;110.53;36.58;;;;;;;7.13;100.00;99106.47;4990485;28;20026;-53
2022/04/26 05:55:04;;;;;;;117.97;38.05;;;;;;;7.22;100.00;99107.00;4992387;28;20380;-53
2022/04/26 05:57:30;;;;;;;121.97;39.35;;;;;;;7.20;100.00;99106.41;4992314;28;20491;-50
2022/04/26 05:59:55;;;;;;;110.78;37.42;;;;;;;7.32;100.00;99108.09;4987759;28;20042;-51
2022/04/26 06:02:21;;;;;;;108.25;35.17;;;;;;;7.36;100.00;99100.44;4987414;28;20034;-53
2022/04/26 06:04:46;;;;;;;111.68;36.58;;;;;;;7.37;100.00;99095.94;5003743;28;20053;-51
2022/04/26 06:07:11;;;;;;;91.72;33.13;;;;;;;7.31;100.00;99109.13;4995514;28;20034;-53
2022/04/26 06:09:37;;;;;;;114.18;35.47;;;;;;;7.57;100.00;99102.63;4992505;28;20038;-54
2022/04/26 06:12:04;;;;;;;95.50;34.45;;;;;;;7.62;100.00;99107.31;4995361;28;20038;-54
2022/04/26 06:14:30;;;;;;;80.43;30.45;;;;;;;7.64;100.00;99107.06;4991831;28;20088;-52
2022/04/26 06:16:55;;;;;;;81.95;30.95;;;;;;;7.75;100.00;99103.63;4994479;28;20042;-53
2022/04/26 06:19:21;;;;;;;67.57;28.02;;;;;;;8.07;100.00;99106.84;4993027;28;20029;-51
2022/04/26 06:21:46;;;;;;;66.95;26.38;;;;;;;8.54;97.06;99106.94;4989368;28;20803;-51
2022/04/26 06:24:12;;;;;;;63.55;26.98;;;;;;;9.35;93.37;99114.28;4989137;28;20026;-51
2022/04/26 06:26:37;;;;;;;71.15;28.10;;;;;;;9.81;90.69;99117.81;4992072;28;20497;-53
2022/04/26 06:29:03;;;;;;;58.95;24.73;;;;;;;12.78;77.53;99114.28;5000609;28;20037;-54
2022/04/26 06:31:28;;;;;;;51.97;22.75;;;;;;;14.68;68.51;99104.84;4989793;28;20120;-54
2022/04/26 06:33:54;;;;;;;53.33;22.63;;;;;;;13.29;71.11;99113.78;4992607;28;20432;-54
2022/04/26 06:36:19;;;;;;;78.90;23.88;;;;;;;12.84;71.79;99113.25;4998479;28;20107;-54
2022/04/26 06:38:45;;;;;;;46.35;24.17;;;;;;;11.89;76.97;99109.53;4998813;28;20031;-54
2022/04/26 06:41:10;;;;;;;43.33;21.58;;;;;;;10.81;81.44;99102.88;5000060;28;20048;-52
2022/04/26 06:43:36;;;;;;;51.78;22.08;;;;;;;11.31;80.91;99101.91;4997761;28;20022;-53
2022/04/26 06:46:01;;;;;;;53.95;22.55;;;;;;;14.54;69.29;99109.16;4996591;28;20100;-51
2022/04/26 06:48:27;;;;;;;44.80;21.40;;;;;;;15.65;64.64;99109.91;4991491;28;20039;-52
2022/04/26 06:50:55;;;;;;;39.95;19.90;;;;;;;15.75;63.96;99114.47;4999107;28;20567;-54
2022/04/26 06:53:21;;;;;;;36.45;18.27;;;;;;;15.70;61.69;99107.19;4997451;28;20034;-52
2022/04/26 06:55:46;;;;;;;29.23;15.75;;;;;;;13.99;67.20;99101.56;4999028;28;20315;-52
2022/04/26 06:58:12;;;;;;;30.98;13.85;;;;;;;12.74;71.48;99105.91;4995445;28;20510;-52
2022/04/26 07:00:37;;;;;;;24.77;13.90;;;;;;;13.45;69.17;99107.34;4997484;28;20047;-54
2022/04/26 07:03:03;;;;;;;28.27;14.57;;;;;;;12.95;70.50;99114.09;4993578;28;20022;-51
2022/04/26 07:05:29;;;;;;;25.65;14.95;;;;;;;13.64;67.26;99109.59;5002638;28;20046;-54
2022/04/26 07:07:54;;;;;;;26.60;14.38;;;;;;;11.94;72.79;99109.59;4998308;28;20044;-54
2022/04/26 07:10:21;;;;;;;23.58;13.32;;;;;;;11.33;74.70;99112.38;4990504;28;20149;-54
2022/04/26 07:12:47;;;;;;;25.02;13.88;;;;;;;11.20;76.38;99108.19;4991273;28;20026;-51
2022/04/26 07:15:12;;;;;;;23.85;13.73;;;;;;;11.28;76.23;99118.47;4990540;28;20120;-56
2022/04/26 07:17:39;;;;;;;23.35;11.75;;;;;;;11.10;75.30;99116.13;4996464;28;20067;-52
2022/04/26 07:20:05;;;;;;;24.13;11.55;;;;;;;11.25;74.56;99121.69;4991668;28;20623;-54
2022/04/26 07:22:32;;;;;;;22.50;12.70;;;;;;;14.94;64.98;99121.75;4999600;28;20046;-53
2022/04/26 07:24:57;;;;;;;20.27;11.73;;;;;;;14.89;63.92;99119.88;5004473;28;20030;-52
2022/04/26 07:27:23;;;;;;;17.92;11.32;;;;;;;14.89;62.76;99114.47;4980306;28;20045;-54
2022/04/26 07:29:49;;;;;;;20.15;11.48;;;;;;;13.48;70.21;99114.94;4974507;28;20026;-54
2022/04/26 07:32:14;;;;;;;15.60;10.45;;;;;;;14.91;63.89;99121.50;4996104;28;20046;-54
2022/04/26 07:34:39;;;;;;;17.35;10.20;;;;;;;13.92;65.79;99125.25;4996276;28;20131;-51
2022/04/26 07:37:05;;;;;;;18.08;10.35;;;;;;;12.61;71.51;99135.16;4993720;28;20058;-51
2022/04/26 07:39:33;;;;;;;16.05;10.50;;;;;;;11.31;75.34;99134.13;4990757;28;20151;-50
2022/04/26 07:41:59;;;;;;;19.48;10.13;;;;;;;11.14;78.47;99142.19;4989988;28;20042;-53
2022/04/26 07:44:24;;;;;;;18.17;11.40;;;;;;;10.02;78.82;99148.47;4995920;28;20417;-54
2022/04/26 07:46:50;;;;;;;17.02;10.68;;;;;;;9.60;79.71;99154.91;4993518;28;20042;-54
2022/04/26 07:49:15;;;;;;;17.17;11.35;;;;;;;9.79;80.78;99155.56;4998056;28;20034;-51
2022/04/26 07:51:42;;;;;;;18.27;11.95;;;;;;;9.67;83.99;99158.25;4997430;28;20038;-52
2022/04/26 07:54:07;;;;;;;20.40;11.73;;;;;;;9.71;81.02;99163.97;4991434;28;20030;-54
2022/04/26 07:56:33;;;;;;;19.48;12.57;;;;;;;9.83;82.43;99163.91;4994388;28;20072;-54
2022/04/26 07:58:59;;;;;;;18.35;12.82;;;;;;;9.96;82.02;99176.19;5001730;28;20402;-53
2022/04/26 08:01:25;;;;;;;18.70;12.27;;;;;;;9.70;81.96;99167.69;4989105;28;22092;-50
2022/04/26 08:03:51;;;;;;;17.80;12.07;;;;;;;9.67;82.23;99166.28;4991465;28;20037;-52
2022/04/26 08:06:17;;;;;;;20.98;11.95;;;;;;;9.60;82.13;99170.16;4994646;28;20111;-50
2022/04/26 08:08:42;;;;;;;20.73;12.90;;;;;;;9.47;83.20;99179.28;4999381;28;20038;-51
2022/04/26 08:11:11;;;;;;;22.67;13.75;;;;;;;9.17;83.90;99188.28;5001847;28;20041;-53
2022/04/26 08:13:40;;;;;;;27.17;15.30;;;;;;;8.92;83.52;99177.81;4990792;28;20030;-53
2022/04/26 08:16:06;;;;;;;28.02;15.50;;;;;;;9.24;85.36;99186.28;4990566;28;20050;-52
2022/04/26 08:18:31;;;;;;;31.40;15.00;;;;;;;9.40;84.09;99186.59;4997056;28;20041;-51
2022/04/26 08:20:57;;;;;;;27.88;15.88;;;;;;;9.16;85.06;99194.69;4999833;28;20072;-53
2022/04/26 08:23:22;;;;;;;25.45;14.80;;;;;;;9.09;85.62;99191.31;4998069;28;20078;-52
2022/04/26 08:28:33;;;;;;;27.77;17.05;;;;;;;9.00;86.23;99198.03;4994358;28;20511;-52
2022/04/26 08:30:58;;;;;;;28.05;16.90;;;;;;;9.04;85.29;99196.53;4991968;28;20038;-53
2022/04/26 08:33:24;;;;;;;24.17;16.35;;;;;;;9.37;84.21;99200.47;4993299;28;20042;-54
2022/04/26 08:35:49;;;;;;;25.95;15.55;;;;;;;10.06;83.80;99204.00;5003193;28;20050;-54
2022/04/26 08:38:15;;;;;;;26.65;16.17;;;;;;;10.27;81.36;99205.16;4993147;28;20033;-54
2022/04/26 08:40:42;;;;;;;23.02;14.30;;;;;;;10.67;81.20;99212.28;4990906;28;20153;-52
2022/04/26 08:43:07;;;;;;;25.58;14.20;;;;;;;10.50;81.52;99217.63;4999485;28;20034;-54
2022/04/26 08:45:33;;;;;;;22.08;13.02;;;;;;;10.79;79.56;99214.91;4993233;28;20042;-52
2022/04/26 08:51:03;;;;;;;22.48;11.90;;;;;;;10.46;79.60;99223.72;4997337;28;20332;-53
2022/04/26 08:53:29;;;;;;;21.75;11.85;;;;;;;10.39;79.31;99223.88;4995589;28;20458;-53
2022/04/26 08:55:56;;;;;;;19.05;12.07;;;;;;;10.65;77.02;99240.41;4995940;28;20112;-54
2022/04/26 08:58:22;;;;;;;19.02;13.15;;;;;;;10.69;79.17;99228.94;4994971;28;20057;-53
2022/04/26 09:01:10;;;;;;;18.50;12.32;;;;;;;10.40;78.37;99236.22;4992861;28;20071;-54
2022/04/26 09:03:36;;;;;;;22.00;14.15;;;;;;;10.10;81.31;99229.22;4996219;28;20034;-53
2022/04/26 09:06:10;;;;;;;23.85;14.88;;;;;;;10.02;81.82;99237.63;4989636;28;20046;-51
2022/04/26 09:08:36;;;;;;;24.35;16.65;;;;;;;9.98;81.66;99239.16;4991514;28;20084;-53
2022/04/26 09:11:02;;;;;;;28.50;17.95;;;;;;;10.26;80.18;99249.09;4993345;28;20046;-53
2022/04/26 09:13:29;;;;;;;25.45;16.58;;;;;;;10.17;79.88;99252.38;4993936;28;20030;-54
2022/04/26 09:15:56;;;;;;;22.33;15.88;;;;;;;10.15;80.29;99250.72;4980493;28;20045;-54
2022/04/26 09:18:30;;;;;;;24.17;15.07;;;;;;;10.20;78.67;99251.91;4994823;28;20076;-54
2022/04/26 09:20:56;;;;;;;22.73;14.70;;;;;;;10.31;78.70;99251.06;4990021;28;20053;-52
2022/04/26 09:23:32;;;;;;;21.95;14.05;;;;;;;10.12;78.58;99248.53;4988445;28;20026;-54
2022/04/26 09:26:12;;;;;;;23.55;15.32;;;;;;;10.26;79.76;99256.28;4987828;28;20070;-50
2022/04/26 09:28:41;;;;;;;;;;;;;;;10.28;77.70;99260.41;4990235;28;20065;-52
2022/04/26 09:31:20;;;;;;;26.63;14.43;;;;;;;10.42;78.45;99262.78;4993692;28;19926;-50
2022/04/26 09:33:49;;;;;;;20.67;13.68;;;;;;;10.85;78.46;99266.72;4998092;28;20030;-50
2022/04/26 09:36:15;;;;;;;19.58;13.82;;;;;;;10.82;76.37;99270.72;4993065;28;20053;-51
2022/04/26 09:38:48;;;;;;;20.45;13.95;;;;;;;10.50;79.06;99262.38;4994840;28;20528;-51
2022/04/26 09:41:14;;;;;;;23.27;15.68;;;;;;;10.78;77.78;99269.56;5002275;28;20128;-53
2022/04/26 09:43:39;;;;;;;21.73;15.70;;;;;;;10.24;80.82;99274.47;4989260;28;20030;-51
2022/04/26 09:46:06;;;;;;;21.25;15.52;;;;;;;10.26;79.36;99272.34;4992933;28;20042;-53
2022/04/26 09:48:35;;;;;;;22.17;14.65;;;;;;;10.07;79.69;99272.53;4992866;28;20124;-53
2022/04/26 09:51:04;;;;;;;21.40;14.35;;;;;;;9.94;79.88;99284.34;4992127;28;20334;-51
2022/04/26 09:53:29;;;;;;;24.75;15.43;;;;;;;10.06;80.51;99278.13;4994844;28;20054;-52
2022/04/26 09:55:56;;;;;;;23.60;14.82;;;;;;;10.09;81.52;99283.84;4988632;28;20136;-53
2022/04/26 09:58:22;;;;;;;25.77;16.05;;;;;;;10.08;81.20;99284.06;4997455;28;20049;-53
2022/04/26 10:00:49;;;;;;;22.30;14.40;;;;;;;10.28;80.45;99278.31;4996402;28;20046;-53
2022/04/26 10:03:16;;;;;;;24.77;15.07;;;;;;;10.33;80.26;99275.75;4972578;28;20374;-53
2022/04/26 10:05:42;;;;;;;25.40;15.88;;;;;;;10.06;80.40;99281.66;4988206;28;20038;-52
2022/04/26 10:08:07;;;;;;;26.15;15.98;;;;;;;10.45;81.49;99281.84;4999419;28;20061;-50
2022/04/26 10:10:34;;;;;;;29.00;17.73;;;;;;;10.59;79.76;99279.72;4992574;28;20437;-55
2022/04/26 10:15:43;;;;;;;28.63;17.52;;;;;;;10.83;77.16;99282.25;4996130;28;20228;-52
2022/04/26 10:18:45;;;;;;;31.95;19.20;;;;;;;11.08;76.68;99284.53;4991425;28;20472;-54
2022/04/26 10:21:12;;;;;;;32.22;19.98;;;;;;;10.94;75.96;99284.06;4968602;28;20358;-51
2022/04/26 10:23:56;;;;;;;40.17;22.70;;;;;;;10.98;77.57;99285.16;4989318;28;20038;-53
2022/04/26 10:26:25;;;;;;;46.35;25.98;;;;;;;10.31;80.22;99284.03;4986730;28;20078;-51
2022/04/26 10:28:51;;;;;;;54.85;30.55;;;;;;;10.35;80.34;99287.03;4992502;28;20019;-53
2022/04/26 10:31:20;;;;;;;53.97;31.50;;;;;;;10.57;81.23;99295.22;4987863;28;20054;-51
2022/04/26 10:33:46;;;;;;;66.07;34.40;;;;;;;11.00;79.39;99293.78;4991595;28;20042;-50
2022/04/26 10:36:27;;;;;;;59.35;34.10;;;;;;;11.31;77.88;99295.09;4994595;28;20400;-52
2022/04/26 10:39:05;;;;;;;66.07;34.58;;;;;;;11.81;75.99;99299.56;4999081;28;20041;-53
2022/04/26 10:41:46;;;;;;;60.90;31.98;;;;;;;11.55;75.65;99294.88;4988171;28;20501;-51
2022/04/26 10:44:17;;;;;;;66.15;34.60;;;;;;;11.15;78.49;99301.28;4989048;28;20042;-53
2022/04/26 10:46:43;;;;;;;66.97;32.85;;;;;;;11.27;76.85;99298.50;4992605;28;20078;-51
2022/04/26 10:49:22;;;;;;;65.43;32.03;;;;;;;11.08;77.63;99305.97;4987138;28;20034;-50
2022/04/26 10:51:48;;;;;;;68.22;36.03;;;;;;;11.09;78.96;99302.25;4995526;28;20050;-53
2022/04/26 10:54:13;;;;;;;72.65;34.35;;;;;;;11.07;78.43;99307.84;4997234;28;20037;-52
2022/04/26 10:56:39;;;;;;;78.13;34.83;;;;;;;11.02;78.60;99305.09;4995141;28;20033;-54
2022/04/26 10:59:12;;;;;;;68.68;34.97;;;;;;;11.00;78.71;99310.69;4988718;28;20541;-51
2022/04/26 11:01:37;;;;;;;75.72;34.50;;;;;;;10.92;78.75;99308.41;4998636;28;20949;-53
2022/04/26 11:04:05;;;;;;;69.53;34.30;;;;;;;10.64;80.02;99305.78;4994748;28;20030;-52
2022/04/26 11:06:33;;;;;;;77.18;33.35;;;;;;;10.62;79.68;99316.75;4991906;28;20623;-54
2022/04/26 11:09:14;;;;;;;68.55;34.47;;;;;;;10.74;79.87;99316.69;4988034;28;20054;-54
2022/04/26 11:11:55;;;;;;;71.85;33.38;;;;;;;10.47;79.88;99319.16;4986309;28;20138;-54
2022/04/26 11:14:20;;;;;;;69.05;34.15;;;;;;;10.31;80.07;99312.69;4996731;28;20547;-52
2022/04/26 11:16:59;;;;;;;78.68;36.45;;;;;;;10.28;81.28;99319.34;4986748;28;20449;-51
2022/04/26 11:19:38;;;;;;;80.60;38.90;;;;;;;10.31;81.70;99323.41;4988406;28;20062;-54
2022/04/26 11:22:04;;;;;;;83.70;39.40;;;;;;;10.10;81.65;99328.31;4991702;28;20152;-52
2022/04/26 11:29:58;;;;;;;99.32;43.97;;;;;;;10.19;82.01;99333.31;4990951;28;20037;-53
2022/04/26 11:32:30;;;;;;;97.57;43.92;;;;;;;9.77;84.43;99333.50;4995488;28;20117;-54
2022/04/26 11:34:56;;;;;;;103.43;48.80;;;;;;;9.69;85.24;99330.13;4995251;28;20038;-55
2022/04/26 11:37:22;;;;;;;117.53;50.45;;;;;;;9.47;85.83;99337.13;4991536;28;20428;-52
2022/04/26 11:39:47;;;;;;;126.35;52.30;;;;;;;9.25;86.36;99342.22;4996678;28;20037;-52
2022/04/26 11:42:13;;;;;;;133.85;54.35;;;;;;;9.28;87.56;99349.75;4995343;28;20101;-52
2022/04/26 11:44:59;;;;;;;130.93;52.95;;;;;;;9.01;89.63;99349.38;4991002;28;20424;-53
2022/04/26 11:47:38;;;;;;;131.55;52.30;;;;;;;8.98;92.37;99355.97;4997948;28;20042;-54
2022/04/26 11:50:20;;;;;;;153.35;57.72;;;;;;;9.02;93.44;99357.16;5006239;28;20041;-54
2022/04/26 11:52:46;;;;;;;165.43;59.03;;;;;;;9.02;93.61;99359.03;4993260;28;20038;-53
2022/04/26 11:55:38;;;;;;;155.68;60.97;;;;;;;8.77;95.40;99377.91;4993446;28;20022;-54
2022/04/26 11:58:30;;;;;;;164.52;60.67;;;;;;;8.61;97.54;99390.00;4994604;28;20061;-52
2022/04/26 12:01:02;;;;;;;171.77;65.53;;;;;;;8.34;98.84;99395.69;4995915;28;20042;-54
2022/04/26 12:03:31;;;;;;;155.90;59.50;;;;;;;8.23;97.35;99399.06;5000026;28;20038;-53
2022/04/26 12:06:01;;;;;;;152.02;58.40;;;;;;;8.35;98.29;99407.16;4973757;28;20042;-53
2022/04/26 12:08:27;;;;;;;150.80;59.25;;;;;;;8.29;98.25;99424.91;5001389;28;20023;-51
2022/04/26 12:10:53;;;;;;;161.85;61.42;;;;;;;8.13;97.38;99420.13;4971146;28;20523;-53
2022/04/26 12:13:39;;;;;;;162.35;59.33;;;;;;;8.06;98.97;99419.38;4991791;28;20030;-53
2022/04/26 12:16:14;;;;;;;159.02;58.47;;;;;;;8.24;98.00;99422.09;4999516;28;20046;-51
2022/04/26 12:18:56;;;;;;;151.02;58.38;;;;;;;8.13;99.39;99420.13;4998735;28;20049;-51
2022/04/26 12:21:22;;;;;;;160.00;60.83;;;;;;;8.10;100.00;99420.59;4991549;28;20041;-53
2022/04/26 12:23:49;;;;;;;153.02;61.00;;;;;;;7.70;100.00;99437.78;4995549;28;20476;-52
2022/04/26 12:26:14;;;;;;;58.92;24.55;;;;;;;7.43;97.98;99437.19;4992516;28;20044;-53
2022/04/26 12:28:49;;;;;;;70.70;28.63;;;;;;;7.32;97.59;99440.56;4998509;28;20397;-54
2022/04/26 12:31:22;;;;;;;94.93;40.33;;;;;;;7.26;99.10;99446.75;4992290;28;20157;-51
2022/04/26 12:34:12;;;;;;;56.40;24.17;;;;;;;7.20;99.56;99436.94;4993931;28;20030;-51
2022/04/26 12:36:59;;;;;;;85.53;35.03;;;;;;;7.40;100.00;99437.63;4990187;28;20045;-52
2022/04/26 12:39:26;;;;;;;80.97;33.20;;;;;;;7.55;100.00;99439.97;5000879;28;20038;-50
2022/04/26 12:41:53;;;;;;;86.80;38.58;;;;;;;7.63;100.00;99444.22;4998375;28;20128;-52
2022/04/26 12:44:19;;;;;;;80.72;32.92;;;;;;;7.41;100.00;99449.91;4995915;28;20050;-50
2022/04/26 12:50:27;;;;;;;67.22;29.60;;;;;;;7.51;100.00;99447.59;4994383;28;20046;-50
2022/04/26 12:52:33;;;;;;;46.38;21.85;;;;;;;7.54;100.00;99454.34;5003622;28;20145;-51
2022/04/26 12:54:58;;;;;;;24.25;10.50;;;;;;;7.49;99.99;99456.84;4993773;28;20033;-52
2022/04/26 12:57:24;;;;;;;18.75;9.45;;;;;;;7.71;98.38;99454.59;4990193;28;20445;-51
2022/04/26 12:59:49;;;;;;;14.20;7.53;;;;;;;8.21;98.47;99452.72;4988109;28;20037;-53
2022/04/26 13:02:16;;;;;;;17.48;10.15;;;;;;;8.64;95.94;99459.06;4995253;28;20089;-54
2022/04/26 13:04:41;;;;;;;13.32;8.15;;;;;;;8.81;94.39;99460.06;5001443;28;20022;-53
2022/04/26 13:07:06;;;;;;;15.75;8.55;;;;;;;8.97;90.48;99463.97;4998344;28;20053;-54
2022/04/26 13:09:32;;;;;;;8.63;5.20;;;;;;;8.70;89.58;99466.16;5001037;28;20030;-54
2022/04/26 13:11:58;;;;;;;10.65;6.00;;;;;;;8.92;88.75;99469.19;4996249;28;20042;-53
2022/04/26 13:14:23;;;;;;;12.00;6.90;;;;;;;9.32;91.38;99465.97;4996126;28;20401;-53
2022/04/26 13:16:49;;;;;;;10.63;5.30;;;;;;;10.21;89.70;99465.94;4990355;28;20046;-54
2022/04/26 13:19:15;;;;;;;12.10;6.10;;;;;;;10.79;89.55;99472.28;4995655;28;20253;-51
2022/04/26 13:21:40;;;;;;;6.15;3.67;;;;;;;10.72;87.51;99463.56;4994924;28;20038;-52
2022/04/26 13:24:06;;;;;;;8.00;4.53;;;;;;;10.08;82.61;99464.34;4993707;28;20132;-52
2022/04/26 13:26:34;;;;;;;4.25;2.63;;;;;;;9.44;82.39;99468.69;4993867;28;20045;-52
2022/04/26 13:28:59;;;;;;;6.90;3.78;;;;;;;9.54;86.59;99468.13;4989836;28;20116;-51
2022/04/26 13:31:25;;;;;;;5.88;3.10;;;;;;;9.13;83.81;99477.75;4988815;28;20046;-53
2022/04/26 13:33:50;;;;;;;10.05;4.40;;;;;;;9.59;86.97;99477.09;4988189;28;20022;-52
2022/04/26 13:36:17;;;;;;;6.95;3.28;;;;;;;9.12;85.23;99487.63;4988873;28;20049;-50
2022/04/26 13:38:42;;;;;;;10.10;4.43;;;;;;;9.04;86.11;99485.28;4989480;28;20041;-52
2022/04/26 13:41:09;;;;;;;6.63;4.05;;;;;;;8.82;85.36;99483.09;4987417;28;20414;-54
2022/04/26 13:43:34;;;;;;;6.30;3.90;;;;;;;8.58;88.23;99492.00;4998281;28;20030;-54
2022/04/26 13:46:00;;;;;;;7.95;4.03;;;;;;;8.45;90.65;99486.81;4998490;28;20050;-52
2022/04/26 13:48:26;;;;;;;5.53;3.58;;;;;;;8.42;90.83;99483.53;4994492;28;20393;-54
2022/04/26 13:50:51;;;;;;;6.63;3.30;;;;;;;8.52;90.87;99491.03;4987089;28;20070;-54
2022/04/26 13:53:17;;;;;;;7.05;4.13;;;;;;;8.49;90.24;99488.00;4991743;28;20273;-51
2022/04/26 13:55:42;;;;;;;6.82;3.70;;;;;;;8.58;90.37;99498.16;4995343;28;20522;-52
2022/04/26 13:58:09;;;;;;;5.50;3.22;;;;;;;8.78;87.54;99503.25;4995447;28;20475;-52
2022/04/26 14:00:36;;;;;;;7.15;3.35;;;;;;;8.75;82.62;99497.56;4995216;28;20049;-53
2022/04/26 14:03:02;;;;;;;6.80;3.55;;;;;;;8.76;83.39;99499.19;4992756;28;20056;-50
2022/04/26 14:05:27;;;;;;;8.93;4.47;;;;;;;8.64;86.43;99499.13;4998498;28;20030;-51
2022/04/26 14:07:52;;;;;;;9.02;4.18;;;;;;;8.58;85.75;99497.34;4972571;28;20034;-51
2022/04/26 14:10:18;;;;;;;7.93;4.50;;;;;;;8.67;87.30;99492.53;4993775;28;20021;-54
2022/04/26 14:12:43;;;;;;;6.97;4.28;;;;;;;8.87;86.41;99505.66;4997042;28;20026;-52
2022/04/26 14:23:24;;;;;;;7.82;4.82;;;;;;;8.87;83.06;99497.63;4994440;28;20508;-53
2022/04/26 14:25:50;;;;;;;7.18;4.50;;;;;;;8.88;83.65;99507.28;4989643;28;20030;-51
2022/04/26 14:28:16;;;;;;;8.88;5.20;;;;;;;9.25;83.45;99505.34;4993564;28;20034;-51
2022/04/26 14:30:41;;;;;;;7.90;5.28;;;;;;;9.23;84.07;99500.22;4994152;28;20510;-53
2022/04/26 14:33:07;;;;;;;9.70;4.57;;;;;;;9.47;78.21;99503.00;4993217;28;20038;-53
2022/04/26 14:35:32;;;;;;;6.93;4.45;;;;;;;9.35;80.56;99507.50;4993368;28;20651;-53
2022/04/26 14:37:58;;;;;;;9.63;5.03;;;;;;;8.96;80.92;99506.97;4996283;28;20026;-51
2022/04/26 14:40:24;;;;;;;7.10;4.25;;;;;;;8.99;79.49;99511.88;4998759;28;20453;-51
2022/04/26 14:42:50;;;;;;;6.32;4.35;;;;;;;9.75;75.64;99517.59;4996010;28;20030;-53
2022/04/26 14:45:16;;;;;;;8.63;4.35;;;;;;;9.91;76.51;99500.88;4991473;28;20040;-54
2022/04/26 14:47:41;;;;;;;8.30;4.95;;;;;;;9.40;78.10;99507.63;4989694;28;20031;-53
2022/04/26 14:50:08;;;;;;;6.72;4.32;;;;;;;9.21;75.86;99510.34;4994085;28;20057;-52
2022/04/26 14:52:33;;;;;;;9.07;4.60;;;;;;;9.63;75.38;99514.88;4993574;28;20018;-52
2022/04/26 14:55:01;;;;;;;7.93;5.15;;;;;;;9.78;75.66;99515.28;4994004;28;20044;-53
2022/04/26 14:57:27;;;;;;;9.10;4.55;;;;;;;9.96;75.71;99501.00;4998283;28;20049;-53
2022/04/26 14:59:53;;;;;;;14.75;8.15;;;;;;;10.08;75.64;99514.38;4991870;28;20030;-53
2022/04/26 15:02:18;;;;;;;8.65;5.50;;;;;;;9.52;75.35;99508.47;4999961;28;20046;-52
2022/04/26 15:04:47;;;;;;;7.68;4.72;;;;;;;9.63;74.77;99513.03;5008220;28;20084;-52
2022/04/26 15:07:12;;;;;;;8.85;5.50;;;;;;;9.74;76.74;99510.63;5001061;28;20042;-53
2022/04/26 15:09:44;;;;;;;8.23;5.28;;;;;;;9.52;77.87;99508.47;5003329;28;20037;-53
2022/04/26 15:17:38;;;;;;;9.68;5.50;;;;;;;9.71;74.19;99512.72;4997661;28;20072;-54
2022/04/26 15:20:05;;;;;;;9.70;5.10;;;;;;;9.60;73.32;99516.16;4998281;28;20038;-54
2022/04/26 15:22:30;;;;;;;9.60;5.90;;;;;;;9.93;75.97;99517.50;4999710;28;20115;-53
2022/04/26 15:24:55;;;;;;;10.35;6.03;;;;;;;9.93;72.98;99509.47;4992520;28;20388;-54
2022/04/26 15:27:21;;;;;;;9.93;6.03;;;;;;;9.93;74.79;99507.63;4994748;28;20097;-52
2022/04/26 15:29:46;;;;;;;11.55;6.13;;;;;;;10.24;74.31;99515.56;4989887;28;20425;-52
2022/04/26 15:32:12;;;;;;;9.90;6.18;;;;;;;10.45;73.19;99509.63;4994489;28;20125;-52